createdAt,value
2023-03-17T00:00:41.440Z,-1.01
2023-03-17T00:03:26.002Z,-1.01
2023-03-17T00:05:54.792Z,-1.02
2023-03-17T00:08:23.820Z,-1.05
2023-03-17T00:10:52.543Z,-1.06
2023-03-17T00:13:20.813Z,-1.08
2023-03-17T00:15:53.061Z,-1.12
2023-03-17T00:18:28.162Z,-1.16
2023-03-17T00:20:56.568Z,-1.18
2023-03-17T00:23:25.656Z,-1.21
2023-03-17T00:25:57.465Z,-1.23
2023-03-17T00:28:27.266Z,-1.25
2023-03-17T00:30:57.733Z,-1.27
2023-03-17T00:33:27.946Z,-1.28
2023-03-17T00:35:56.068Z,-1.30
2023-03-17T00:38:26.571Z,-1.31
2023-03-17T00:40:54.866Z,-1.32
2023-03-17T00:43:24.075Z,-1.36
2023-03-17T00:45:52.456Z,-1.40
2023-03-17T00:48:21.998Z,-1.43
2023-03-17T00:50:50.493Z,-1.47
2023-03-17T00:53:21.654Z,-1.49
2023-03-17T00:55:50.087Z,-1.52
2023-03-17T00:58:29.378Z,-1.56
2023-03-17T01:00:57.653Z,-1.60
2023-03-17T01:03:26.581Z,-1.61
2023-03-17T01:07:59.036Z,-1.58
2023-03-17T01:10:28.748Z,-1.61
2023-03-17T01:12:58.161Z,-1.63
2023-03-17T01:15:30.446Z,-1.68
2023-03-17T01:17:59.732Z,-1.73
2023-03-17T01:20:30.962Z,-1.82
2023-03-17T01:22:59.735Z,-1.90
2023-03-17T01:25:28.632Z,-1.96
2023-03-17T01:27:58.041Z,-2.00
2023-03-17T01:30:28.901Z,-2.07
2023-03-17T01:33:00.670Z,-2.13
2023-03-17T01:35:29.551Z,-2.20
2023-03-17T01:37:58.045Z,-2.24
2023-03-17T01:40:29.207Z,-2.22
2023-03-17T01:43:06.568Z,-2.23
2023-03-17T01:46:13.938Z,-2.26
2023-03-17T01:48:56.333Z,-2.26
2023-03-17T01:51:33.997Z,-2.25
2023-03-17T01:54:04.847Z,-2.27
2023-03-17T01:56:35.230Z,-2.30
2023-03-17T01:59:05.410Z,-2.35
2023-03-17T02:01:37.865Z,-2.40
2023-03-17T02:04:06.808Z,-2.46
2023-03-17T02:06:37.060Z,-2.50
2023-03-17T02:09:10.549Z,-2.54
2023-03-17T02:11:39.450Z,-2.60
2023-03-17T02:14:09.070Z,-2.64
2023-03-17T02:16:40.581Z,-2.69
2023-03-17T02:19:09.959Z,-2.74
2023-03-17T02:21:39.585Z,-2.79
2023-03-17T02:24:25.044Z,-2.83
2023-03-17T02:26:55.697Z,-2.86
2023-03-17T02:29:30.819Z,-2.89
2023-03-17T02:31:59.146Z,-2.91
2023-03-17T02:34:27.298Z,-2.93
2023-03-17T02:36:56.094Z,-2.95
2023-03-17T02:39:25.242Z,-2.98
2023-03-17T02:41:58.338Z,-3.01
2023-03-17T02:51:59.315Z,-3.05
2023-03-17T02:54:27.815Z,-3.07
2023-03-17T02:56:56.750Z,-3.08
2023-03-17T02:59:25.252Z,-3.10
2023-03-17T03:01:53.630Z,-3.12
2023-03-17T03:04:22.207Z,-3.14
2023-03-17T03:06:50.612Z,-3.16
2023-03-17T03:09:19.008Z,-3.18
2023-03-17T03:11:47.380Z,-3.21
2023-03-17T03:14:15.959Z,-3.22
2023-03-17T03:16:44.554Z,-3.23
2023-03-17T03:26:54.213Z,-3.27
2023-03-17T03:29:22.614Z,-3.29
2023-03-17T03:31:52.543Z,-3.28
2023-03-17T03:34:20.700Z,-3.30
2023-03-17T03:36:48.795Z,-3.32
2023-03-17T03:39:17.085Z,-3.34
2023-03-17T03:41:45.858Z,-3.37
2023-03-17T03:44:19.077Z,-3.42
2023-03-17T03:46:48.219Z,-3.47
2023-03-17T03:49:16.561Z,-3.50
2023-03-17T03:51:45.385Z,-3.53
2023-03-17T03:54:13.652Z,-3.57
2023-03-17T03:56:45.749Z,-3.60
2023-03-17T03:59:15.233Z,-3.63
2023-03-17T04:01:43.535Z,-3.65
2023-03-17T04:04:11.632Z,-3.67
2023-03-17T04:06:39.734Z,-3.71
2023-03-17T04:09:09.522Z,-3.74
2023-03-17T04:11:38.009Z,-3.77
2023-03-17T04:14:06.529Z,-3.79
2023-03-17T04:16:34.800Z,-3.81
2023-03-17T04:19:03.210Z,-3.83
2023-03-17T04:21:32.056Z,-3.85
2023-03-17T04:24:00.755Z,-3.87
2023-03-17T04:26:29.039Z,-3.90
2023-03-17T04:28:59.170Z,-3.91
2023-03-17T04:31:27.962Z,-3.92
2023-03-17T04:33:56.339Z,-3.93
2023-03-17T04:36:24.617Z,-3.93
2023-03-17T04:38:56.058Z,-3.92
2023-03-17T04:41:24.329Z,-3.91
2023-03-17T04:43:52.812Z,-3.90
2023-03-17T04:46:21.585Z,-3.88
2023-03-17T04:48:49.582Z,-3.88
2023-03-17T04:51:17.734Z,-3.86
2023-03-17T04:53:46.218Z,-3.84
2023-03-17T04:56:14.573Z,-3.81
2023-03-17T04:58:45.613Z,-3.77
2023-03-17T05:01:14.509Z,-3.78
2023-03-17T05:03:42.486Z,-3.78
2023-03-17T05:06:11.028Z,-3.75
2023-03-17T05:08:39.491Z,-3.70
2023-03-17T05:11:09.598Z,-3.65
2023-03-17T05:13:41.064Z,-3.59
2023-03-17T05:16:09.977Z,-3.54
2023-03-17T05:18:42.093Z,-3.49
2023-03-17T05:21:10.373Z,-3.43
2023-03-17T05:23:39.039Z,-3.37
2023-03-17T05:26:07.016Z,-3.32
2023-03-17T05:28:38.200Z,-3.26
2023-03-17T05:31:07.705Z,-3.19
2023-03-17T05:33:39.370Z,-3.13
2023-03-17T05:36:08.149Z,-3.05
2023-03-17T05:38:37.092Z,-2.97
2023-03-17T05:41:05.472Z,-2.89
2023-03-17T05:43:34.052Z,-2.80
2023-03-17T05:46:02.282Z,-2.70
2023-03-17T05:48:30.497Z,-2.60
2023-03-17T05:50:59.001Z,-2.50
2023-03-17T05:53:27.596Z,-2.39
2023-03-17T05:55:56.313Z,-2.30
2023-03-17T05:58:24.605Z,-2.20
2023-03-17T06:00:56.269Z,-2.08
2023-03-17T06:03:24.993Z,-1.98
2023-03-17T06:05:53.158Z,-1.91
2023-03-17T06:08:22.045Z,-1.81
2023-03-17T06:10:50.926Z,-1.72
2023-03-17T06:13:19.119Z,-1.62
2023-03-17T06:15:47.298Z,-1.50
2023-03-17T06:18:16.313Z,-1.37
2023-03-17T06:20:44.503Z,-1.26
2023-03-17T06:23:13.027Z,-1.14
2023-03-17T06:25:41.698Z,-1.03
2023-03-17T06:28:10.404Z,-0.93
2023-03-17T06:30:40.742Z,-0.81
2023-03-17T06:33:09.438Z,-0.69
2023-03-17T06:35:41.263Z,-0.58
2023-03-17T06:38:11.595Z,-0.47
2023-03-17T06:40:41.496Z,-0.38
2023-03-17T06:43:10.350Z,-0.30
2023-03-17T06:45:41.213Z,-0.23
2023-03-17T06:48:09.549Z,-0.14
2023-03-17T06:50:37.888Z,-0.05
2023-03-17T06:53:07.402Z,0.05
2023-03-17T06:55:35.774Z,0.14
2023-03-17T06:58:06.637Z,0.23
2023-03-17T07:00:38.401Z,0.33
2023-03-17T07:03:06.410Z,0.42
2023-03-17T07:05:35.534Z,0.53
2023-03-17T07:08:03.797Z,0.60
2023-03-17T07:10:33.035Z,0.63
2023-03-17T07:13:07.957Z,0.67
2023-03-17T07:15:37.451Z,0.72
2023-03-17T07:18:07.102Z,0.75
2023-03-17T07:20:35.879Z,0.78
2023-03-17T07:23:04.297Z,0.85
2023-03-17T07:25:32.928Z,0.90
2023-03-17T07:35:44.275Z,1.23
2023-03-17T07:38:13.113Z,1.30
2023-03-17T07:40:41.811Z,1.39
2023-03-17T07:43:10.892Z,1.47
2023-03-17T07:45:39.669Z,1.54
2023-03-17T07:48:08.538Z,1.61
2023-03-17T07:50:37.082Z,1.70
2023-03-17T07:53:05.445Z,1.77
2023-03-17T07:55:33.812Z,1.85
2023-03-17T07:58:02.899Z,1.92
2023-03-17T08:00:32.179Z,2.00
2023-03-17T08:03:09.942Z,2.07
2023-03-17T08:05:39.778Z,2.14
2023-03-17T08:08:11.658Z,2.21
2023-03-17T08:10:42.024Z,2.27
2023-03-17T08:13:10.819Z,2.35
2023-03-17T08:15:41.652Z,2.41
2023-03-17T08:18:10.567Z,2.46
2023-03-17T08:20:39.257Z,2.51
2023-03-17T08:23:10.605Z,2.60
2023-03-17T08:25:39.505Z,2.68
2023-03-17T08:28:07.986Z,2.76
2023-03-17T08:30:38.940Z,2.81
2023-03-17T08:33:07.703Z,2.88
2023-03-17T08:35:37.413Z,2.94
2023-03-17T08:38:06.558Z,3.01
2023-03-17T08:40:35.165Z,3.07
2023-03-17T08:43:04.088Z,3.16
2023-03-17T08:45:32.529Z,3.27
2023-03-17T08:48:01.624Z,3.35
2023-03-17T08:50:31.095Z,3.40
2023-03-17T08:52:59.377Z,3.47
2023-03-17T08:55:27.701Z,3.51
2023-03-17T08:57:56.246Z,3.57
2023-03-17T09:00:24.913Z,3.62
2023-03-17T09:02:53.372Z,3.68
2023-03-17T09:05:21.944Z,3.74
2023-03-17T09:07:50.383Z,3.81
2023-03-17T09:10:23.689Z,3.88
2023-03-17T09:12:53.612Z,3.96
2023-03-17T09:15:22.327Z,4.05
2023-03-17T09:17:51.002Z,4.15
2023-03-17T09:20:24.051Z,4.24
2023-03-17T09:22:54.398Z,4.34
2023-03-17T09:25:22.692Z,4.44
2023-03-17T09:27:55.757Z,4.56
2023-03-17T09:30:27.056Z,4.71
2023-03-17T09:32:55.145Z,4.86
2023-03-17T09:35:23.649Z,4.99
2023-03-17T09:37:51.911Z,5.14
2023-03-17T09:40:22.248Z,5.25
2023-03-17T09:43:02.293Z,5.31
2023-03-17T09:45:39.849Z,5.35
2023-03-17T09:48:32.379Z,5.36
2023-03-17T09:51:13.884Z,5.36
2023-03-17T09:53:59.963Z,5.35
2023-03-17T09:56:30.439Z,5.33
2023-03-17T09:59:22.769Z,5.29
2023-03-17T10:01:51.057Z,5.23
2023-03-17T10:04:19.697Z,5.20
2023-03-17T10:06:48.126Z,5.19
2023-03-17T10:09:26.165Z,5.21
2023-03-17T10:11:59.598Z,5.18
2023-03-17T10:14:30.696Z,5.13
2023-03-17T10:17:19.461Z,5.10
2023-03-17T10:20:29.746Z,5.13
2023-03-17T10:23:01.075Z,5.17
2023-03-17T10:25:31.964Z,5.20
2023-03-17T10:28:32.680Z,5.26
2023-03-17T10:31:15.895Z,5.31
2023-03-17T10:33:52.588Z,5.37
2023-03-17T10:36:38.429Z,5.44
2023-03-17T10:39:07.353Z,5.50
2023-03-17T10:41:38.834Z,5.55
2023-03-17T10:44:11.252Z,5.58
2023-03-17T10:46:41.903Z,5.62
2023-03-17T10:49:16.956Z,5.65
2023-03-17T10:51:46.500Z,5.71
2023-03-17T10:54:19.074Z,5.74
2023-03-17T10:56:49.099Z,5.75
2023-03-17T10:59:28.663Z,5.80
2023-03-17T11:02:00.798Z,5.87
2023-03-17T11:04:37.088Z,5.91
2023-03-17T11:07:18.561Z,5.90
2023-03-17T11:09:50.929Z,5.86
2023-03-17T11:12:21.840Z,5.83
2023-03-17T11:14:49.842Z,5.82
2023-03-17T11:17:20.902Z,5.80
2023-03-17T11:19:50.706Z,5.81
2023-03-17T11:22:40.339Z,5.81
2023-03-17T11:25:16.177Z,5.79
2023-03-17T11:28:06.947Z,5.77
2023-03-17T11:30:40.492Z,5.81
2023-03-17T11:33:21.907Z,5.86
2023-03-17T11:35:53.293Z,5.88
2023-03-17T11:38:29.735Z,5.86
2023-03-17T11:41:28.615Z,5.87
2023-03-17T11:44:29.021Z,5.90
2023-03-17T11:47:19.537Z,5.93
2023-03-17T11:50:13.236Z,5.92
2023-03-17T11:53:14.195Z,5.95
2023-03-17T11:55:47.831Z,6.00
2023-03-17T11:58:33.810Z,6.09
2023-03-17T12:01:02.304Z,6.18
2023-03-17T12:03:43.771Z,6.21
2023-03-17T12:06:18.372Z,6.22
2023-03-17T12:08:52.602Z,6.22
2023-03-17T12:11:24.189Z,6.24
2023-03-17T12:13:52.585Z,6.26
2023-03-17T12:16:29.518Z,6.25
2023-03-17T12:19:24.557Z,6.24
2023-03-17T12:21:59.353Z,6.21
2023-03-17T12:24:43.876Z,6.19
2023-03-17T12:27:59.082Z,6.17
2023-03-17T12:30:35.435Z,6.17
2023-03-17T12:33:12.065Z,6.18
2023-03-17T12:35:41.649Z,6.19
2023-03-17T12:38:13.731Z,6.20
2023-03-17T12:41:15.439Z,6.24
2023-03-17T12:43:48.528Z,6.29
2023-03-17T12:46:37.806Z,6.31
2023-03-17T12:49:25.083Z,6.32
2023-03-17T12:52:02.661Z,6.30
2023-03-17T12:54:33.612Z,6.29
2023-03-17T12:57:05.000Z,6.28
2023-03-17T12:59:34.124Z,6.29
2023-03-17T13:02:13.241Z,6.29
2023-03-17T13:04:49.002Z,6.28
2023-03-17T13:07:21.986Z,6.27
2023-03-17T13:09:50.816Z,6.27
2023-03-17T13:12:44.452Z,6.26
2023-03-17T13:15:25.570Z,6.26
2023-03-17T13:18:13.934Z,6.24
2023-03-17T13:20:53.238Z,6.23
2023-03-17T13:23:41.198Z,6.23
2023-03-17T13:27:02.238Z,6.27
2023-03-17T13:29:33.691Z,6.26
2023-03-17T13:32:31.612Z,6.29
2023-03-17T13:34:59.795Z,6.30
2023-03-17T13:37:28.034Z,6.30
2023-03-17T13:40:17.490Z,6.30
2023-03-17T13:43:01.317Z,6.30
2023-03-17T13:45:44.063Z,6.34
2023-03-17T13:48:31.086Z,6.36
2023-03-17T13:51:32.221Z,6.34
2023-03-17T13:54:08.777Z,6.33
2023-03-17T13:56:41.136Z,6.34
2023-03-17T13:59:16.990Z,6.33
2023-03-17T14:01:48.015Z,6.34
2023-03-17T14:04:24.986Z,6.37
2023-03-17T14:06:55.702Z,6.38
2023-03-17T14:09:33.922Z,6.37
2023-03-17T14:12:11.117Z,6.36
2023-03-17T14:15:07.608Z,6.34
2023-03-17T14:17:42.862Z,6.33
2023-03-17T14:20:15.615Z,6.32
2023-03-17T14:22:48.011Z,6.32
2023-03-17T14:25:23.333Z,6.32
2023-03-17T14:27:53.885Z,6.34
2023-03-17T14:30:29.606Z,6.35
2023-03-17T14:33:07.272Z,6.37
2023-03-17T14:35:39.124Z,6.37
2023-03-17T14:38:30.476Z,6.37
2023-03-17T14:41:16.213Z,6.36
2023-03-17T14:43:48.881Z,6.33
2023-03-17T14:46:24.223Z,6.31
2023-03-17T14:48:58.006Z,6.29
2023-03-17T14:51:32.293Z,6.27
2023-03-17T14:54:01.483Z,6.26
2023-03-17T14:56:52.855Z,6.25
2023-03-17T14:59:27.192Z,6.25
2023-03-17T15:01:56.775Z,6.24
2023-03-17T15:04:27.561Z,6.22
2023-03-17T15:07:03.698Z,6.20
2023-03-17T15:09:38.581Z,6.18
2023-03-17T15:12:23.449Z,6.17
2023-03-17T15:14:53.629Z,6.15
2023-03-17T15:17:26.005Z,6.12
2023-03-17T15:19:57.743Z,6.10
2023-03-17T15:22:34.994Z,6.07
2023-03-17T15:25:20.826Z,6.05
2023-03-17T15:27:49.125Z,6.02
2023-03-17T15:30:19.565Z,5.99
2023-03-17T15:33:03.220Z,5.95
2023-03-17T15:35:31.498Z,5.92
2023-03-17T15:38:00.107Z,5.89
2023-03-17T15:40:28.818Z,5.87
2023-03-17T15:43:00.564Z,5.84
2023-03-17T15:45:29.673Z,5.80
2023-03-17T15:47:57.819Z,5.77
2023-03-17T15:50:29.478Z,5.73
2023-03-17T15:52:57.967Z,5.69
2023-03-17T15:55:29.543Z,5.64
2023-03-17T15:57:58.226Z,5.59
2023-03-17T16:00:34.859Z,5.53
2023-03-17T16:03:19.055Z,5.46
2023-03-17T16:05:47.100Z,5.38
2023-03-17T16:08:18.037Z,5.30
2023-03-17T16:10:46.894Z,5.21
2023-03-17T16:13:15.116Z,5.13
2023-03-17T16:15:48.240Z,5.05
2023-03-17T16:18:19.064Z,4.99
2023-03-17T16:20:48.604Z,4.94
2023-03-17T16:23:24.654Z,4.87
2023-03-17T16:25:55.480Z,4.81
2023-03-17T16:28:32.015Z,4.73
2023-03-17T16:31:01.021Z,4.65
2023-03-17T16:33:39.605Z,4.57
2023-03-17T16:36:11.088Z,4.51
2023-03-17T16:38:39.683Z,4.47
2023-03-17T16:41:22.462Z,4.43
2023-03-17T16:43:59.351Z,4.35
2023-03-17T16:46:35.016Z,4.27
2023-03-17T16:49:07.016Z,4.18
2023-03-17T16:51:35.579Z,4.09
2023-03-17T16:54:04.367Z,4.00
2023-03-17T16:56:32.682Z,3.92
2023-03-17T16:59:18.661Z,3.84
2023-03-17T17:01:47.646Z,3.76
2023-03-17T17:04:16.048Z,3.68
2023-03-17T17:06:44.421Z,3.60
2023-03-17T17:09:14.091Z,3.52
2023-03-17T17:11:42.419Z,3.45
2023-03-17T17:14:11.381Z,3.37
2023-03-17T17:16:40.351Z,3.30
2023-03-17T17:19:16.666Z,3.23
2023-03-17T17:21:45.000Z,3.15
2023-03-17T17:24:13.888Z,3.06
2023-03-17T17:26:43.933Z,2.99
2023-03-17T17:29:12.765Z,2.89
2023-03-17T17:31:41.216Z,2.80
2023-03-17T17:34:09.885Z,2.70
2023-03-17T17:36:38.674Z,2.61
2023-03-17T17:39:07.461Z,2.55
2023-03-17T17:41:36.548Z,2.51
2023-03-17T17:44:05.721Z,2.47
2023-03-17T17:46:34.452Z,2.43
2023-03-17T17:49:02.815Z,2.37
2023-03-17T17:51:34.582Z,2.31
2023-03-17T17:54:03.218Z,2.26
2023-03-17T17:56:36.631Z,2.19
2023-03-17T17:59:04.919Z,2.15
2023-03-17T18:01:33.354Z,2.09
2023-03-17T18:04:03.704Z,2.03
2023-03-17T18:06:32.426Z,1.97
2023-03-17T18:09:01.970Z,1.91
2023-03-17T18:11:32.435Z,1.87
2023-03-17T18:14:01.193Z,1.81
2023-03-17T18:16:29.739Z,1.76
2023-03-17T18:18:59.211Z,1.71
2023-03-17T18:21:28.074Z,1.66
2023-03-17T18:23:57.357Z,1.60
2023-03-17T18:26:28.610Z,1.56
2023-03-17T18:28:57.311Z,1.52
2023-03-17T18:31:37.986Z,1.50
2023-03-17T18:34:24.264Z,1.46
2023-03-17T18:36:59.829Z,1.42
2023-03-17T18:39:28.583Z,1.38
2023-03-17T18:41:56.924Z,1.34
2023-03-17T18:44:26.241Z,1.29
2023-03-17T18:46:54.428Z,1.24
2023-03-17T18:49:28.268Z,1.18
2023-03-17T18:51:56.888Z,1.12
2023-03-17T18:54:24.880Z,1.07
2023-03-17T18:56:56.493Z,1.03
2023-03-17T18:59:25.100Z,0.98
2023-03-17T19:01:59.603Z,0.94
2023-03-17T19:04:27.737Z,0.89
2023-03-17T19:06:56.342Z,0.85
2023-03-17T19:09:24.639Z,0.79
2023-03-17T19:11:53.055Z,0.73
2023-03-17T19:14:22.006Z,0.66
2023-03-17T19:16:50.018Z,0.61
2023-03-17T19:19:18.735Z,0.53
2023-03-17T19:21:46.970Z,0.44
2023-03-17T19:24:15.407Z,0.38
2023-03-17T19:26:44.172Z,0.30
2023-03-17T19:29:14.541Z,0.24
2023-03-17T19:31:43.480Z,0.19
2023-03-17T19:34:12.543Z,0.14
2023-03-17T19:36:41.681Z,0.09
2023-03-17T19:39:13.897Z,0.04
2023-03-17T19:41:42.419Z,-0.01
2023-03-17T19:44:11.064Z,-0.04
2023-03-17T19:46:39.520Z,-0.07
2023-03-17T19:49:07.626Z,-0.12
2023-03-17T19:51:36.126Z,-0.16
2023-03-17T19:54:11.833Z,-0.22
2023-03-17T19:56:40.437Z,-0.26
2023-03-17T19:59:09.278Z,-0.26
2023-03-17T20:01:38.533Z,-0.26
2023-03-17T20:04:07.290Z,-0.29
2023-03-17T20:06:35.456Z,-0.32
2023-03-17T20:09:04.334Z,-0.37
2023-03-17T20:11:34.085Z,-0.41
2023-03-17T20:14:03.056Z,-0.43
2023-03-17T20:16:33.704Z,-0.46
2023-03-17T20:19:02.299Z,-0.50
2023-03-17T20:21:33.474Z,-0.54
2023-03-17T20:24:02.308Z,-0.59
2023-03-17T20:26:35.226Z,-0.63
2023-03-17T20:29:04.232Z,-0.65
2023-03-17T20:31:32.363Z,-0.66
2023-03-17T20:34:01.343Z,-0.69
2023-03-17T20:39:26.639Z,-0.70
2023-03-17T20:41:55.038Z,-0.75
2023-03-17T20:44:24.062Z,-0.78
2023-03-17T20:46:55.029Z,-0.85
2023-03-17T20:49:23.453Z,-0.89
2023-03-17T20:51:54.502Z,-0.94
2023-03-17T20:54:23.414Z,-1.00
2023-03-17T20:56:56.724Z,-1.04
2023-03-17T20:59:25.192Z,-1.09
2023-03-17T21:01:53.719Z,-1.15
2023-03-17T21:04:27.757Z,-1.21
2023-03-17T21:06:57.464Z,-1.27
2023-03-17T21:09:25.761Z,-1.32
2023-03-17T21:11:56.297Z,-1.36
2023-03-17T21:14:24.411Z,-1.38
2023-03-17T21:16:52.804Z,-1.41
2023-03-17T21:19:26.043Z,-1.44
2023-03-17T21:21:54.642Z,-1.48
2023-03-17T21:24:34.250Z,-1.51
2023-03-17T21:27:05.126Z,-1.55
2023-03-17T21:29:34.065Z,-1.58
2023-03-17T21:32:07.421Z,-1.63
2023-03-17T21:34:35.695Z,-1.68
2023-03-17T21:37:04.073Z,-1.73
2023-03-17T21:39:32.958Z,-1.77
2023-03-17T21:42:02.203Z,-1.81
2023-03-17T21:44:36.205Z,-1.84
2023-03-17T21:47:04.385Z,-1.87
2023-03-17T21:49:33.505Z,-1.90
2023-03-17T21:52:01.985Z,-1.94
2023-03-17T21:54:30.704Z,-1.98
2023-03-17T21:57:04.449Z,-2.02
2023-03-17T21:59:35.843Z,-2.06
2023-03-17T22:02:03.903Z,-2.08
2023-03-17T22:04:32.401Z,-2.11
2023-03-17T22:07:03.267Z,-2.14
2023-03-17T22:09:37.625Z,-2.17
2023-03-17T22:12:07.958Z,-2.19
2023-03-17T22:14:36.604Z,-2.22
2023-03-17T22:17:06.311Z,-2.23
2023-03-17T22:19:35.165Z,-2.26
2023-03-17T22:22:06.680Z,-2.28
2023-03-17T22:24:35.130Z,-2.30
2023-03-17T22:27:03.227Z,-2.29
2023-03-17T22:29:31.420Z,-2.28
2023-03-17T22:31:59.764Z,-2.26
2023-03-17T22:34:27.671Z,-2.23
2023-03-17T22:39:43.268Z,-2.19
2023-03-17T22:42:11.737Z,-2.21
2023-03-17T22:44:41.668Z,-2.22
2023-03-17T22:47:09.748Z,-2.24
2023-03-17T22:49:37.948Z,-2.27
2023-03-17T22:52:06.644Z,-2.27
2023-03-17T22:54:37.196Z,-2.27
2023-03-17T22:57:05.728Z,-2.27
2023-03-17T22:59:38.715Z,-2.27
2023-03-17T23:02:08.666Z,-2.29
2023-03-17T23:04:36.984Z,-2.32
2023-03-17T23:07:07.382Z,-2.35
2023-03-17T23:09:38.540Z,-2.40
2023-03-17T23:12:09.471Z,-2.45
2023-03-17T23:14:38.851Z,-2.49
2023-03-17T23:17:09.201Z,-2.52
2023-03-17T23:19:38.488Z,-2.57
2023-03-17T23:22:06.674Z,-2.63
2023-03-17T23:24:34.692Z,-2.66
2023-03-17T23:27:02.639Z,-2.68
2023-03-17T23:29:31.049Z,-2.66
2023-03-17T23:32:00.379Z,-2.64
2023-03-17T23:34:28.533Z,-2.61
2023-03-17T23:39:43.867Z,-2.54
2023-03-17T23:42:12.442Z,-2.55
2023-03-17T23:44:41.980Z,-2.56
2023-03-17T23:47:11.194Z,-2.58
2023-03-17T23:49:39.383Z,-2.60
2023-03-17T23:52:07.576Z,-2.62
2023-03-17T23:54:36.469Z,-2.65
2023-03-17T23:57:09.415Z,-2.69
2023-03-17T23:59:37.689Z,-2.76
